Flight Briefing for CMB846

Departure Arrival
Bahrain International Airport (OBBI)
Click to view FAA NOTAMS
NAS Sigonella (LICZ)
Click to view FAA NOTAMS
Departure Time Arrival Time
N/A N/A
Aircraft Distance
B757-200SF 1929nm
Departure METAR Arrival METAR
OBBI 250400Z 28004KT 240V310 CAVOK 32/20 Q1009 NOSIG LICZ 250255Z 25005KT 9999 FEW100 14/14 Q1015
Suggested Route
NARMI N697 KITOT SISIK UN697 MENLI L677 CVO A1 NOZ A1 METRU P868 ARLOS T340 EVLIB M871 ERNAM ERNAM2J


View recent IFR Routes data
Notes
USTRANSCOM CONTRACT FLIGHT

Charts and Procedures

Charts for OBBI
No chart available
Charts for LICZ
No chart available

Windy.com Weather Map